sensor_id;sensor_type;location;lat;lon;timestamp;P1;durP1;ratioP1;P2;durP2;ratioP2
58137;SDS011;43955;47.362;18.930;2023-03-01T00:02:17;21.52;;;12.27;;
58137;SDS011;43955;47.362;18.930;2023-03-01T00:04:44;21.87;;;11.52;;
58137;SDS011;43955;47.362;18.930;2023-03-01T00:07:12;23.77;;;11.98;;
58137;SDS011;43955;47.362;18.930;2023-03-01T00:09:39;24.27;;;12.02;;
58137;SDS011;43955;47.362;18.930;2023-03-01T00:12:07;18.73;;;10.95;;
58137;SDS011;43955;47.362;18.930;2023-03-01T00:14:35;24.10;;;11.05;;
58137;SDS011;43955;47.362;18.930;2023-03-01T00:17:02;23.60;;;11.27;;
58137;SDS011;43955;47.362;18.930;2023-03-01T00:19:30;18.58;;;11.25;;
58137;SDS011;43955;47.362;18.930;2023-03-01T00:21:59;22.77;;;12.25;;
58137;SDS011;43955;47.362;18.930;2023-03-01T00:24:26;20.75;;;12.15;;
58137;SDS011;43955;47.362;18.930;2023-03-01T00:26:54;26.45;;;12.55;;
58137;SDS011;43955;47.362;18.930;2023-03-01T00:29:25;21.20;;;12.23;;
58137;SDS011;43955;47.362;18.930;2023-03-01T00:31:53;22.75;;;12.57;;
58137;SDS011;43955;47.362;18.930;2023-03-01T00:34:20;24.50;;;12.40;;
58137;SDS011;43955;47.362;18.930;2023-03-01T00:36:47;26.70;;;13.38;;
58137;SDS011;43955;47.362;18.930;2023-03-01T00:39:15;24.27;;;12.00;;
58137;SDS011;43955;47.362;18.930;2023-03-01T00:41:42;22.42;;;12.68;;
58137;SDS011;43955;47.362;18.930;2023-03-01T00:44:10;22.13;;;11.50;;
58137;SDS011;43955;47.362;18.930;2023-03-01T00:46:37;22.65;;;11.50;;
58137;SDS011;43955;47.362;18.930;2023-03-01T00:49:05;28.17;;;13.30;;
58137;SDS011;43955;47.362;18.930;2023-03-01T00:51:32;27.05;;;12.55;;
58137;SDS011;43955;47.362;18.930;2023-03-01T00:54:00;25.30;;;13.20;;
58137;SDS011;43955;47.362;18.930;2023-03-01T00:56:29;22.30;;;11.07;;
58137;SDS011;43955;47.362;18.930;2023-03-01T00:58:57;23.42;;;10.48;;
58137;SDS011;43955;47.362;18.930;2023-03-01T01:01:25;20.92;;;9.32;;
58137;SDS011;43955;47.362;18.930;2023-03-01T01:03:58;20.02;;;9.45;;
58137;SDS011;43955;47.362;18.930;2023-03-01T01:06:34;21.83;;;9.23;;
58137;SDS011;43955;47.362;18.930;2023-03-01T01:09:05;16.02;;;9.23;;
58137;SDS011;43955;47.362;18.930;2023-03-01T01:11:33;19.00;;;8.93;;
58137;SDS011;43955;47.362;18.930;2023-03-01T01:14:02;18.90;;;9.50;;
58137;SDS011;43955;47.362;18.930;2023-03-01T01:16:30;20.67;;;9.13;;
58137;SDS011;43955;47.362;18.930;2023-03-01T01:18:57;18.65;;;9.85;;
58137;SDS011;43955;47.362;18.930;2023-03-01T01:21:26;17.80;;;9.98;;
58137;SDS011;43955;47.362;18.930;2023-03-01T01:23:56;19.37;;;9.82;;
58137;SDS011;43955;47.362;18.930;2023-03-01T01:26:24;19.35;;;8.82;;
58137;SDS011;43955;47.362;18.930;2023-03-01T01:28:54;17.45;;;9.35;;
58137;SDS011;43955;47.362;18.930;2023-03-01T01:31:22;17.52;;;9.13;;
58137;SDS011;43955;47.362;18.930;2023-03-01T01:33:53;17.90;;;9.48;;
58137;SDS011;43955;47.362;18.930;2023-03-01T01:36:21;19.33;;;9.77;;
58137;SDS011;43955;47.362;18.930;2023-03-01T01:38:48;15.40;;;8.40;;
58137;SDS011;43955;47.362;18.930;2023-03-01T01:41:16;18.62;;;8.73;;
58137;SDS011;43955;47.362;18.930;2023-03-01T01:43:45;18.58;;;8.57;;
58137;SDS011;43955;47.362;18.930;2023-03-01T01:48:58;16.42;;;8.05;;
58137;SDS011;43955;47.362;18.930;2023-03-01T01:51:32;17.12;;;7.90;;
58137;SDS011;43955;47.362;18.930;2023-03-01T01:54:07;15.38;;;7.70;;
58137;SDS011;43955;47.362;18.930;2023-03-01T01:56:44;16.95;;;7.93;;
58137;SDS011;43955;47.362;18.930;2023-03-01T01:59:15;15.07;;;7.60;;
58137;SDS011;43955;47.362;18.930;2023-03-01T02:01:42;13.50;;;7.30;;
58137;SDS011;43955;47.362;18.930;2023-03-01T02:04:10;12.85;;;7.40;;
58137;SDS011;43955;47.362;18.930;2023-03-01T02:06:42;14.23;;;6.37;;
58137;SDS011;43955;47.362;18.930;2023-03-01T02:09:14;13.95;;;6.57;;
58137;SDS011;43955;47.362;18.930;2023-03-01T02:11:43;15.45;;;8.13;;
58137;SDS011;43955;47.362;18.930;2023-03-01T02:14:11;14.35;;;6.93;;
58137;SDS011;43955;47.362;18.930;2023-03-01T02:16:38;12.93;;;6.68;;
58137;SDS011;43955;47.362;18.930;2023-03-01T02:19:06;15.23;;;8.02;;
58137;SDS011;43955;47.362;18.930;2023-03-01T02:24:05;18.05;;;7.68;;
58137;SDS011;43955;47.362;18.930;2023-03-01T02:29:15;17.10;;;7.25;;
58137;SDS011;43955;47.362;18.930;2023-03-01T02:31:42;13.65;;;7.53;;
58137;SDS011;43955;47.362;18.930;2023-03-01T02:34:21;13.25;;;7.57;;
58137;SDS011;43955;47.362;18.930;2023-03-01T02:36:57;11.95;;;6.43;;
58137;SDS011;43955;47.362;18.930;2023-03-01T02:39:28;13.87;;;7.47;;
58137;SDS011;43955;47.362;18.930;2023-03-01T02:41:58;15.05;;;7.57;;
58137;SDS011;43955;47.362;18.930;2023-03-01T02:44:27;16.23;;;7.07;;
58137;SDS011;43955;47.362;18.930;2023-03-01T02:46:55;13.95;;;7.10;;
58137;SDS011;43955;47.362;18.930;2023-03-01T02:57:24;12.55;;;6.22;;
58137;SDS011;43955;47.362;18.930;2023-03-01T02:59:52;11.07;;;6.85;;
58137;SDS011;43955;47.362;18.930;2023-03-01T03:02:26;13.93;;;6.87;;
58137;SDS011;43955;47.362;18.930;2023-03-01T03:05:10;12.40;;;6.90;;
58137;SDS011;43955;47.362;18.930;2023-03-01T03:07:56;12.93;;;6.30;;
58137;SDS011;43955;47.362;18.930;2023-03-01T03:10:27;14.43;;;6.75;;
58137;SDS011;43955;47.362;18.930;2023-03-01T03:13:00;13.05;;;6.97;;
58137;SDS011;43955;47.362;18.930;2023-03-01T03:15:29;13.65;;;6.37;;
58137;SDS011;43955;47.362;18.930;2023-03-01T03:17:57;16.37;;;8.05;;
58137;SDS011;43955;47.362;18.930;2023-03-01T03:20:26;14.40;;;7.20;;
58137;SDS011;43955;47.362;18.930;2023-03-01T03:22:55;13.60;;;7.12;;
58137;SDS011;43955;47.362;18.930;2023-03-01T03:25:23;14.45;;;7.05;;
58137;SDS011;43955;47.362;18.930;2023-03-01T03:27:52;14.32;;;6.75;;
58137;SDS011;43955;47.362;18.930;2023-03-01T03:30:30;13.80;;;6.50;;
58137;SDS011;43955;47.362;18.930;2023-03-01T03:32:58;21.67;;;9.05;;
58137;SDS011;43955;47.362;18.930;2023-03-01T03:35:30;15.73;;;7.68;;
58137;SDS011;43955;47.362;18.930;2023-03-01T03:38:03;13.05;;;6.32;;
58137;SDS011;43955;47.362;18.930;2023-03-01T03:40:37;12.48;;;6.07;;
58137;SDS011;43955;47.362;18.930;2023-03-01T03:43:10;16.73;;;7.50;;
58137;SDS011;43955;47.362;18.930;2023-03-01T03:45:39;13.75;;;6.57;;
58137;SDS011;43955;47.362;18.930;2023-03-01T03:48:08;12.80;;;6.57;;
58137;SDS011;43955;47.362;18.930;2023-03-01T03:50:37;13.57;;;7.15;;
58137;SDS011;43955;47.362;18.930;2023-03-01T03:53:08;14.27;;;6.90;;
58137;SDS011;43955;47.362;18.930;2023-03-01T03:55:38;15.50;;;7.62;;
58137;SDS011;43955;47.362;18.930;2023-03-01T03:58:07;11.65;;;6.47;;
58137;SDS011;43955;47.362;18.930;2023-03-01T04:00:36;11.80;;;6.82;;
58137;SDS011;43955;47.362;18.930;2023-03-01T04:03:05;11.65;;;6.57;;
58137;SDS011;43955;47.362;18.930;2023-03-01T04:05:33;10.98;;;6.32;;
58137;SDS011;43955;47.362;18.930;2023-03-01T04:08:00;13.25;;;6.53;;
58137;SDS011;43955;47.362;18.930;2023-03-01T04:10:38;11.30;;;5.70;;
58137;SDS011;43955;47.362;18.930;2023-03-01T04:13:11;12.13;;;6.80;;
58137;SDS011;43955;47.362;18.930;2023-03-01T04:15:40;13.45;;;6.15;;
58137;SDS011;43955;47.362;18.930;2023-03-01T04:18:08;13.75;;;6.82;;
58137;SDS011;43955;47.362;18.930;2023-03-01T04:20:36;11.60;;;5.80;;
58137;SDS011;43955;47.362;18.930;2023-03-01T04:23:05;15.50;;;7.53;;
58137;SDS011;43955;47.362;18.930;2023-03-01T04:25:38;13.88;;;6.43;;
58137;SDS011;43955;47.362;18.930;2023-03-01T04:28:09;14.68;;;6.97;;
58137;SDS011;43955;47.362;18.930;2023-03-01T04:30:37;15.23;;;6.75;;
58137;SDS011;43955;47.362;18.930;2023-03-01T04:33:06;12.25;;;7.03;;
58137;SDS011;43955;47.362;18.930;2023-03-01T04:35:36;13.65;;;6.65;;
58137;SDS011;43955;47.362;18.930;2023-03-01T04:38:04;17.23;;;8.95;;
58137;SDS011;43955;47.362;18.930;2023-03-01T04:40:32;14.85;;;7.93;;
58137;SDS011;43955;47.362;18.930;2023-03-01T04:42:59;17.37;;;8.77;;
58137;SDS011;43955;47.362;18.930;2023-03-01T04:45:27;18.27;;;8.43;;
58137;SDS011;43955;47.362;18.930;2023-03-01T04:47:54;13.20;;;6.80;;
58137;SDS011;43955;47.362;18.930;2023-03-01T04:50:25;14.48;;;8.68;;
58137;SDS011;43955;47.362;18.930;2023-03-01T04:52:52;16.05;;;7.97;;
58137;SDS011;43955;47.362;18.930;2023-03-01T04:55:20;14.02;;;7.25;;
58137;SDS011;43955;47.362;18.930;2023-03-01T04:57:47;14.80;;;8.25;;
58137;SDS011;43955;47.362;18.930;2023-03-01T05:00:15;16.33;;;8.45;;
58137;SDS011;43955;47.362;18.930;2023-03-01T05:02:59;16.15;;;7.72;;
58137;SDS011;43955;47.362;18.930;2023-03-01T05:07:56;18.98;;;8.75;;
58137;SDS011;43955;47.362;18.930;2023-03-01T05:10:26;15.50;;;7.78;;
58137;SDS011;43955;47.362;18.930;2023-03-01T05:12:56;17.27;;;7.70;;
58137;SDS011;43955;47.362;18.930;2023-03-01T05:15:25;23.92;;;8.05;;
58137;SDS011;43955;47.362;18.930;2023-03-01T05:17:53;15.40;;;6.95;;
58137;SDS011;43955;47.362;18.930;2023-03-01T05:20:22;13.90;;;7.93;;
58137;SDS011;43955;47.362;18.930;2023-03-01T05:22:52;15.85;;;7.53;;
58137;SDS011;43955;47.362;18.930;2023-03-01T05:25:22;14.93;;;7.60;;
58137;SDS011;43955;47.362;18.930;2023-03-01T05:27:49;13.95;;;8.00;;
58137;SDS011;43955;47.362;18.930;2023-03-01T05:30:17;14.85;;;7.50;;
58137;SDS011;43955;47.362;18.930;2023-03-01T05:32:46;16.90;;;8.48;;
58137;SDS011;43955;47.362;18.930;2023-03-01T05:35:16;13.55;;;7.65;;
58137;SDS011;43955;47.362;18.930;2023-03-01T05:37:45;16.50;;;8.13;;
58137;SDS011;43955;47.362;18.930;2023-03-01T05:40:21;27.35;;;9.07;;
58137;SDS011;43955;47.362;18.930;2023-03-01T05:42:54;20.23;;;7.87;;
58137;SDS011;43955;47.362;18.930;2023-03-01T05:45:23;17.25;;;8.25;;
58137;SDS011;43955;47.362;18.930;2023-03-01T05:47:52;15.57;;;8.18;;
58137;SDS011;43955;47.362;18.930;2023-03-01T05:50:22;18.30;;;7.87;;
58137;SDS011;43955;47.362;18.930;2023-03-01T05:52:56;14.05;;;7.43;;
58137;SDS011;43955;47.362;18.930;2023-03-01T05:55:25;15.65;;;8.30;;
58137;SDS011;43955;47.362;18.930;2023-03-01T05:57:55;15.45;;;7.85;;
58137;SDS011;43955;47.362;18.930;2023-03-01T06:00:24;21.12;;;8.80;;
58137;SDS011;43955;47.362;18.930;2023-03-01T06:02:53;14.73;;;8.05;;
58137;SDS011;43955;47.362;18.930;2023-03-01T06:05:21;12.88;;;6.55;;
58137;SDS011;43955;47.362;18.930;2023-03-01T06:07:49;17.55;;;7.10;;
58137;SDS011;43955;47.362;18.930;2023-03-01T06:10:17;14.13;;;7.50;;
58137;SDS011;43955;47.362;18.930;2023-03-01T06:12:45;12.37;;;7.35;;
58137;SDS011;43955;47.362;18.930;2023-03-01T06:15:14;14.57;;;7.53;;
58137;SDS011;43955;47.362;18.930;2023-03-01T06:17:43;17.55;;;7.30;;
58137;SDS011;43955;47.362;18.930;2023-03-01T06:20:15;19.23;;;8.13;;
58137;SDS011;43955;47.362;18.930;2023-03-01T06:22:47;14.15;;;7.78;;
58137;SDS011;43955;47.362;18.930;2023-03-01T06:25:16;16.33;;;7.12;;
58137;SDS011;43955;47.362;18.930;2023-03-01T06:27:46;22.23;;;10.65;;
58137;SDS011;43955;47.362;18.930;2023-03-01T06:30:15;15.65;;;8.38;;
58137;SDS011;43955;47.362;18.930;2023-03-01T06:32:43;15.93;;;7.45;;
58137;SDS011;43955;47.362;18.930;2023-03-01T06:35:11;13.15;;;6.45;;
58137;SDS011;43955;47.362;18.930;2023-03-01T06:37:40;11.20;;;6.80;;
58137;SDS011;43955;47.362;18.930;2023-03-01T06:40:08;17.20;;;7.72;;
58137;SDS011;43955;47.362;18.930;2023-03-01T06:42:38;14.10;;;6.65;;
58137;SDS011;43955;47.362;18.930;2023-03-01T06:45:07;14.43;;;6.97;;
58137;SDS011;43955;47.362;18.930;2023-03-01T06:47:35;12.82;;;7.30;;
58137;SDS011;43955;47.362;18.930;2023-03-01T06:50:02;13.85;;;7.85;;
58137;SDS011;43955;47.362;18.930;2023-03-01T06:52:30;12.10;;;7.20;;
58137;SDS011;43955;47.362;18.930;2023-03-01T06:54:58;14.75;;;7.60;;
58137;SDS011;43955;47.362;18.930;2023-03-01T06:57:25;16.12;;;6.62;;
58137;SDS011;43955;47.362;18.930;2023-03-01T06:59:53;16.00;;;7.12;;
58137;SDS011;43955;47.362;18.930;2023-03-01T07:02:20;13.90;;;7.18;;
58137;SDS011;43955;47.362;18.930;2023-03-01T07:04:50;18.70;;;6.87;;
58137;SDS011;43955;47.362;18.930;2023-03-01T07:07:18;15.73;;;7.20;;
58137;SDS011;43955;47.362;18.930;2023-03-01T07:09:46;15.27;;;6.93;;
58137;SDS011;43955;47.362;18.930;2023-03-01T07:12:13;14.65;;;6.75;;
58137;SDS011;43955;47.362;18.930;2023-03-01T07:14:40;16.00;;;7.12;;
58137;SDS011;43955;47.362;18.930;2023-03-01T07:17:08;15.45;;;7.00;;
58137;SDS011;43955;47.362;18.930;2023-03-01T07:19:35;24.60;;;8.73;;
58137;SDS011;43955;47.362;18.930;2023-03-01T07:22:03;16.70;;;7.45;;
58137;SDS011;43955;47.362;18.930;2023-03-01T07:24:31;12.05;;;6.40;;
58137;SDS011;43955;47.362;18.930;2023-03-01T07:26:58;12.45;;;6.68;;
58137;SDS011;43955;47.362;18.930;2023-03-01T07:29:25;19.98;;;7.10;;
58137;SDS011;43955;47.362;18.930;2023-03-01T07:31:53;16.48;;;7.35;;
58137;SDS011;43955;47.362;18.930;2023-03-01T07:34:20;18.12;;;7.75;;
58137;SDS011;43955;47.362;18.930;2023-03-01T07:36:48;15.07;;;8.10;;
58137;SDS011;43955;47.362;18.930;2023-03-01T07:39:15;15.60;;;7.97;;
58137;SDS011;43955;47.362;18.930;2023-03-01T07:41:45;13.70;;;7.55;;
58137;SDS011;43955;47.362;18.930;2023-03-01T07:44:12;19.62;;;8.02;;
58137;SDS011;43955;47.362;18.930;2023-03-01T07:46:39;17.98;;;8.88;;
58137;SDS011;43955;47.362;18.930;2023-03-01T07:49:07;13.60;;;6.97;;
58137;SDS011;43955;47.362;18.930;2023-03-01T07:51:34;14.10;;;7.22;;
58137;SDS011;43955;47.362;18.930;2023-03-01T07:54:02;15.48;;;6.82;;
58137;SDS011;43955;47.362;18.930;2023-03-01T07:56:29;16.48;;;7.28;;
58137;SDS011;43955;47.362;18.930;2023-03-01T07:58:58;16.30;;;7.97;;
58137;SDS011;43955;47.362;18.930;2023-03-01T08:01:25;14.25;;;7.90;;
58137;SDS011;43955;47.362;18.930;2023-03-01T08:03:53;13.60;;;7.20;;
58137;SDS011;43955;47.362;18.930;2023-03-01T08:06:20;14.60;;;7.28;;
58137;SDS011;43955;47.362;18.930;2023-03-01T08:08:47;27.08;;;7.90;;
58137;SDS011;43955;47.362;18.930;2023-03-01T08:11:16;12.77;;;6.75;;
58137;SDS011;43955;47.362;18.930;2023-03-01T08:13:43;13.18;;;6.60;;
58137;SDS011;43955;47.362;18.930;2023-03-01T08:16:12;15.70;;;8.07;;
58137;SDS011;43955;47.362;18.930;2023-03-01T08:18:42;14.57;;;7.12;;
58137;SDS011;43955;47.362;18.930;2023-03-01T08:21:13;11.68;;;6.37;;
58137;SDS011;43955;47.362;18.930;2023-03-01T08:23:42;13.27;;;7.37;;
58137;SDS011;43955;47.362;18.930;2023-03-01T08:26:17;15.48;;;7.45;;
58137;SDS011;43955;47.362;18.930;2023-03-01T08:28:46;13.77;;;7.60;;
58137;SDS011;43955;47.362;18.930;2023-03-01T08:31:15;20.77;;;6.50;;
58137;SDS011;43955;47.362;18.930;2023-03-01T08:33:47;11.18;;;6.70;;
58137;SDS011;43955;47.362;18.930;2023-03-01T08:36:18;14.45;;;7.62;;
58137;SDS011;43955;47.362;18.930;2023-03-01T08:38:46;15.95;;;7.82;;
58137;SDS011;43955;47.362;18.930;2023-03-01T08:41:13;14.98;;;7.95;;
58137;SDS011;43955;47.362;18.930;2023-03-01T08:43:41;14.50;;;7.60;;
58137;SDS011;43955;47.362;18.930;2023-03-01T08:46:09;14.50;;;7.78;;
58137;SDS011;43955;47.362;18.930;2023-03-01T08:48:37;15.43;;;7.62;;
58137;SDS011;43955;47.362;18.930;2023-03-01T08:51:06;15.50;;;7.87;;
58137;SDS011;43955;47.362;18.930;2023-03-01T08:53:44;14.95;;;7.90;;
58137;SDS011;43955;47.362;18.930;2023-03-01T08:56:11;16.27;;;7.57;;
58137;SDS011;43955;47.362;18.930;2023-03-01T08:58:43;15.90;;;7.18;;
58137;SDS011;43955;47.362;18.930;2023-03-01T09:01:13;16.45;;;8.73;;
58137;SDS011;43955;47.362;18.930;2023-03-01T09:03:44;28.83;;;13.13;;
58137;SDS011;43955;47.362;18.930;2023-03-01T09:06:13;15.63;;;8.43;;
58137;SDS011;43955;47.362;18.930;2023-03-01T09:08:42;17.27;;;7.47;;
58137;SDS011;43955;47.362;18.930;2023-03-01T09:11:15;16.98;;;9.13;;
58137;SDS011;43955;47.362;18.930;2023-03-01T09:13:44;17.30;;;9.25;;
58137;SDS011;43955;47.362;18.930;2023-03-01T09:16:12;14.77;;;8.45;;
58137;SDS011;43955;47.362;18.930;2023-03-01T09:18:41;16.20;;;7.60;;
58137;SDS011;43955;47.362;18.930;2023-03-01T09:21:12;17.05;;;8.05;;
58137;SDS011;43955;47.362;18.930;2023-03-01T09:23:45;16.30;;;8.75;;
58137;SDS011;43955;47.362;18.930;2023-03-01T09:26:17;15.45;;;9.02;;
58137;SDS011;43955;47.362;18.930;2023-03-01T09:28:46;15.70;;;7.55;;
58137;SDS011;43955;47.362;18.930;2023-03-01T09:31:14;18.87;;;8.88;;
58137;SDS011;43955;47.362;18.930;2023-03-01T09:33:45;25.48;;;11.90;;
58137;SDS011;43955;47.362;18.930;2023-03-01T09:36:15;13.05;;;7.68;;
58137;SDS011;43955;47.362;18.930;2023-03-01T09:38:43;19.02;;;8.45;;
58137;SDS011;43955;47.362;18.930;2023-03-01T09:41:19;14.52;;;7.40;;
58137;SDS011;43955;47.362;18.930;2023-03-01T09:44:02;16.23;;;7.80;;
58137;SDS011;43955;47.362;18.930;2023-03-01T09:46:52;14.65;;;7.68;;
58137;SDS011;43955;47.362;18.930;2023-03-01T09:49:39;18.27;;;8.18;;
58137;SDS011;43955;47.362;18.930;2023-03-01T09:52:19;16.80;;;9.07;;
58137;SDS011;43955;47.362;18.930;2023-03-01T09:54:52;18.60;;;7.80;;
58137;SDS011;43955;47.362;18.930;2023-03-01T09:57:33;15.35;;;8.13;;
58137;SDS011;43955;47.362;18.930;2023-03-01T10:03:24;17.67;;;8.63;;
58137;SDS011;43955;47.362;18.930;2023-03-01T10:06:01;14.50;;;8.10;;
58137;SDS011;43955;47.362;18.930;2023-03-01T10:08:34;16.60;;;8.73;;
58137;SDS011;43955;47.362;18.930;2023-03-01T10:11:12;16.73;;;8.05;;
58137;SDS011;43955;47.362;18.930;2023-03-01T10:16:41;15.32;;;7.85;;
58137;SDS011;43955;47.362;18.930;2023-03-01T10:19:23;15.95;;;7.43;;
58137;SDS011;43955;47.362;18.930;2023-03-01T10:21:53;19.30;;;8.27;;
58137;SDS011;43955;47.362;18.930;2023-03-01T10:24:21;18.87;;;8.75;;
58137;SDS011;43955;47.362;18.930;2023-03-01T10:29:26;17.40;;;7.87;;
58137;SDS011;43955;47.362;18.930;2023-03-01T10:31:58;14.30;;;7.20;;
58137;SDS011;43955;47.362;18.930;2023-03-01T10:34:27;16.80;;;8.52;;
58137;SDS011;43955;47.362;18.930;2023-03-01T10:36:57;13.18;;;7.30;;
58137;SDS011;43955;47.362;18.930;2023-03-01T10:39:32;11.43;;;7.15;;
58137;SDS011;43955;47.362;18.930;2023-03-01T10:42:02;12.32;;;6.97;;
58137;SDS011;43955;47.362;18.930;2023-03-01T10:47:02;13.77;;;7.53;;
58137;SDS011;43955;47.362;18.930;2023-03-01T10:49:29;13.45;;;7.12;;
58137;SDS011;43955;47.362;18.930;2023-03-01T10:51:56;13.02;;;7.07;;
58137;SDS011;43955;47.362;18.930;2023-03-01T10:54:38;13.35;;;6.90;;
58137;SDS011;43955;47.362;18.930;2023-03-01T10:57:09;12.20;;;6.95;;
58137;SDS011;43955;47.362;18.930;2023-03-01T11:00:28;14.65;;;7.45;;
58137;SDS011;43955;47.362;18.930;2023-03-01T11:05:31;17.77;;;8.25;;
58137;SDS011;43955;47.362;18.930;2023-03-01T11:08:01;14.82;;;7.68;;
58137;SDS011;43955;47.362;18.930;2023-03-01T11:10:31;13.15;;;7.60;;
58137;SDS011;43955;47.362;18.930;2023-03-01T11:13:08;12.27;;;7.03;;
58137;SDS011;43955;47.362;18.930;2023-03-01T11:15:41;14.35;;;6.80;;
58137;SDS011;43955;47.362;18.930;2023-03-01T11:18:19;42.80;;;9.18;;
58137;SDS011;43955;47.362;18.930;2023-03-01T11:20:51;26.15;;;9.02;;
58137;SDS011;43955;47.362;18.930;2023-03-01T11:23:20;16.73;;;8.32;;
58137;SDS011;43955;47.362;18.930;2023-03-01T11:25:54;14.18;;;8.07;;
58137;SDS011;43955;47.362;18.930;2023-03-01T11:30:57;11.90;;;6.55;;
58137;SDS011;43955;47.362;18.930;2023-03-01T11:33:49;12.37;;;7.22;;
58137;SDS011;43955;47.362;18.930;2023-03-01T11:38:56;13.20;;;7.07;;
58137;SDS011;43955;47.362;18.930;2023-03-01T11:41:25;15.93;;;6.35;;
58137;SDS011;43955;47.362;18.930;2023-03-01T11:46:40;19.37;;;7.18;;
58137;SDS011;43955;47.362;18.930;2023-03-01T12:20:19;10.52;;;5.57;;
58137;SDS011;43955;47.362;18.930;2023-03-01T12:25:58;8.73;;;5.07;;
58137;SDS011;43955;47.362;18.930;2023-03-01T12:31:31;22.13;;;10.55;;
58137;SDS011;43955;47.362;18.930;2023-03-01T12:43:14;10.07;;;5.53;;
58137;SDS011;43955;47.362;18.930;2023-03-01T12:51:14;12.02;;;5.75;;
58137;SDS011;43955;47.362;18.930;2023-03-01T12:53:46;10.40;;;4.78;;
58137;SDS011;43955;47.362;18.930;2023-03-01T12:56:19;18.42;;;5.20;;
58137;SDS011;43955;47.362;18.930;2023-03-01T13:01:45;9.88;;;4.15;;
58137;SDS011;43955;47.362;18.930;2023-03-01T13:04:32;10.32;;;5.07;;
58137;SDS011;43955;47.362;18.930;2023-03-01T13:13:17;11.05;;;4.47;;
58137;SDS011;43955;47.362;18.930;2023-03-01T13:15:45;11.45;;;4.75;;
58137;SDS011;43955;47.362;18.930;2023-03-01T13:31:04;8.88;;;4.68;;
58137;SDS011;43955;47.362;18.930;2023-03-01T13:33:40;9.15;;;4.87;;
58137;SDS011;43955;47.362;18.930;2023-03-01T13:36:11;16.27;;;5.37;;
58137;SDS011;43955;47.362;18.930;2023-03-01T13:39:01;8.20;;;4.47;;
58137;SDS011;43955;47.362;18.930;2023-03-01T13:41:49;10.93;;;4.40;;
58137;SDS011;43955;47.362;18.930;2023-03-01T13:46:50;6.97;;;3.87;;
58137;SDS011;43955;47.362;18.930;2023-03-01T13:49:22;8.50;;;4.78;;
58137;SDS011;43955;47.362;18.930;2023-03-01T13:54:26;8.32;;;3.42;;
58137;SDS011;43955;47.362;18.930;2023-03-01T13:56:57;8.65;;;4.32;;
58137;SDS011;43955;47.362;18.930;2023-03-01T13:59:25;6.37;;;3.55;;
58137;SDS011;43955;47.362;18.930;2023-03-01T14:01:53;7.82;;;3.70;;
58137;SDS011;43955;47.362;18.930;2023-03-01T14:04:24;7.97;;;3.37;;
58137;SDS011;43955;47.362;18.930;2023-03-01T14:06:52;7.43;;;3.60;;
58137;SDS011;43955;47.362;18.930;2023-03-01T14:09:58;8.37;;;4.20;;
58137;SDS011;43955;47.362;18.930;2023-03-01T14:15:19;8.10;;;4.10;;
58137;SDS011;43955;47.362;18.930;2023-03-01T14:20:19;7.90;;;3.80;;
58137;SDS011;43955;47.362;18.930;2023-03-01T14:22:48;6.65;;;3.62;;
58137;SDS011;43955;47.362;18.930;2023-03-01T14:25:19;8.93;;;4.65;;
58137;SDS011;43955;47.362;18.930;2023-03-01T14:27:51;6.18;;;3.85;;
58137;SDS011;43955;47.362;18.930;2023-03-01T14:30:31;8.07;;;4.13;;
58137;SDS011;43955;47.362;18.930;2023-03-01T14:33:02;11.43;;;3.83;;
58137;SDS011;43955;47.362;18.930;2023-03-01T14:35:33;7.43;;;3.58;;
58137;SDS011;43955;47.362;18.930;2023-03-01T14:38:02;6.70;;;3.40;;
58137;SDS011;43955;47.362;18.930;2023-03-01T14:40:36;6.80;;;3.90;;
58137;SDS011;43955;47.362;18.930;2023-03-01T14:43:10;20.90;;;6.12;;
58137;SDS011;43955;47.362;18.930;2023-03-01T14:45:39;6.50;;;3.33;;
58137;SDS011;43955;47.362;18.930;2023-03-01T14:48:06;10.98;;;4.05;;
58137;SDS011;43955;47.362;18.930;2023-03-01T14:50:34;7.43;;;3.85;;
58137;SDS011;43955;47.362;18.930;2023-03-01T14:53:03;14.05;;;4.50;;
58137;SDS011;43955;47.362;18.930;2023-03-01T14:58:05;8.38;;;4.05;;
58137;SDS011;43955;47.362;18.930;2023-03-01T15:00:36;6.55;;;3.58;;
58137;SDS011;43955;47.362;18.930;2023-03-01T15:03:47;7.25;;;3.28;;
58137;SDS011;43955;47.362;18.930;2023-03-01T15:05:57;6.80;;;3.70;;
58137;SDS011;43955;47.362;18.930;2023-03-01T15:08:26;12.60;;;4.03;;
58137;SDS011;43955;47.362;18.930;2023-03-01T15:11:04;10.85;;;3.35;;
58137;SDS011;43955;47.362;18.930;2023-03-01T15:13:44;7.00;;;3.62;;
58137;SDS011;43955;47.362;18.930;2023-03-01T15:16:16;8.05;;;3.72;;
58137;SDS011;43955;47.362;18.930;2023-03-01T15:18:46;8.68;;;4.80;;
58137;SDS011;43955;47.362;18.930;2023-03-01T15:23:54;9.48;;;5.15;;
58137;SDS011;43955;47.362;18.930;2023-03-01T15:26:51;14.85;;;8.57;;
58137;SDS011;43955;47.362;18.930;2023-03-01T15:34:34;28.23;;;9.57;;
58137;SDS011;43955;47.362;18.930;2023-03-01T15:37:15;12.70;;;7.53;;
58137;SDS011;43955;47.362;18.930;2023-03-01T15:40:01;11.60;;;6.20;;
58137;SDS011;43955;47.362;18.930;2023-03-01T15:45:08;47.67;;;8.20;;
58137;SDS011;43955;47.362;18.930;2023-03-01T15:47:48;210.20;;;24.60;;
58137;SDS011;43955;47.362;18.930;2023-03-01T15:50:19;119.70;;;16.90;;
58137;SDS011;43955;47.362;18.930;2023-03-01T15:52:48;137.68;;;24.77;;
58137;SDS011;43955;47.362;18.930;2023-03-01T15:55:19;76.62;;;20.83;;
58137;SDS011;43955;47.362;18.930;2023-03-01T15:57:56;51.13;;;13.55;;
58137;SDS011;43955;47.362;18.930;2023-03-01T16:00:28;88.07;;;34.15;;
58137;SDS011;43955;47.362;18.930;2023-03-01T16:02:56;51.80;;;24.02;;
58137;SDS011;43955;47.362;18.930;2023-03-01T16:05:27;37.97;;;16.10;;
58137;SDS011;43955;47.362;18.930;2023-03-01T16:07:57;58.33;;;12.30;;
58137;SDS011;43955;47.362;18.930;2023-03-01T16:10:24;49.33;;;11.88;;
58137;SDS011;43955;47.362;18.930;2023-03-01T16:12:52;125.70;;;25.92;;
58137;SDS011;43955;47.362;18.930;2023-03-01T16:15:23;79.97;;;20.80;;
58137;SDS011;43955;47.362;18.930;2023-03-01T16:17:58;100.62;;;14.50;;
58137;SDS011;43955;47.362;18.930;2023-03-01T16:20:26;98.65;;;26.33;;
58137;SDS011;43955;47.362;18.930;2023-03-01T16:22:59;76.93;;;25.55;;
58137;SDS011;43955;47.362;18.930;2023-03-01T16:25:33;47.47;;;18.65;;
58137;SDS011;43955;47.362;18.930;2023-03-01T16:28:00;38.55;;;15.98;;
58137;SDS011;43955;47.362;18.930;2023-03-01T16:30:32;46.25;;;15.32;;
58137;SDS011;43955;47.362;18.930;2023-03-01T16:33:03;85.95;;;18.23;;
58137;SDS011;43955;47.362;18.930;2023-03-01T16:35:50;92.68;;;19.90;;
58137;SDS011;43955;47.362;18.930;2023-03-01T16:38:17;50.80;;;16.17;;
58137;SDS011;43955;47.362;18.930;2023-03-01T16:40:46;107.90;;;21.70;;
58137;SDS011;43955;47.362;18.930;2023-03-01T16:43:15;58.47;;;21.25;;
58137;SDS011;43955;47.362;18.930;2023-03-01T16:45:42;77.72;;;24.25;;
58137;SDS011;43955;47.362;18.930;2023-03-01T16:48:11;62.75;;;27.90;;
58137;SDS011;43955;47.362;18.930;2023-03-01T16:50:39;99.82;;;36.65;;
58137;SDS011;43955;47.362;18.930;2023-03-01T16:53:07;92.78;;;39.65;;
58137;SDS011;43955;47.362;18.930;2023-03-01T16:55:34;111.03;;;51.17;;
58137;SDS011;43955;47.362;18.930;2023-03-01T16:58:01;72.50;;;35.60;;
58137;SDS011;43955;47.362;18.930;2023-03-01T17:00:29;48.05;;;16.45;;